Time;durP1;ratioP1;P1;durP2;ratioP2;P2;SDS_P1;SDS_P2;PMS_P1;PMS_P2;Temp;Humidity;BMP_temperature;BMP_pressure;BME280_temperature;BME280_humidity;BME280_pressure;Samples;Min_cycle;Max_cycle;Signal;HPM_P1;HPM_P2
2022/10/22 00:02:04;;;;;;;8.25;6.55;;;18.00;99.90;;;;;;4898261;29;20021;-76
2022/10/22 00:04:30;;;;;;;7.32;6.22;;;18.00;99.90;;;;;;4898363;29;20120;-75
2022/10/22 00:06:56;;;;;;;7.45;5.95;;;18.00;99.90;;;;;;4898152;29;20100;-76
2022/10/22 00:09:22;;;;;;;8.77;6.07;;;17.90;99.90;;;;;;4881449;29;20053;-75
2022/10/22 00:11:47;;;;;;;10.15;7.20;;;17.90;99.90;;;;;;4898339;29;20025;-75
2022/10/22 00:14:14;;;;;;;10.88;6.30;;;17.90;99.90;;;;;;4898309;29;20560;-76
2022/10/22 00:16:40;;;;;;;8.18;6.45;;;18.00;99.90;;;;;;4881476;29;20036;-76
2022/10/22 00:19:05;;;;;;;11.75;6.63;;;18.00;99.90;;;;;;4898207;29;20053;-75
2022/10/22 00:21:31;;;;;;;8.30;5.88;;;18.00;99.90;;;;;;4881441;29;20032;-76
2022/10/22 00:23:57;;;;;;;7.75;6.25;;;18.00;99.90;;;;;;4898190;29;20024;-76
2022/10/22 00:26:22;;;;;;;7.57;6.32;;;18.00;99.90;;;;;;4898104;29;20398;-75
2022/10/22 00:28:48;;;;;;;10.40;7.22;;;18.00;99.90;;;;;;4898074;29;20104;-76
2022/10/22 00:31:14;;;;;;;8.13;6.60;;;18.00;99.90;;;;;;4897902;29;20505;-75
2022/10/22 00:33:40;;;;;;;10.18;6.70;;;18.00;99.90;;;;;;4897617;29;20025;-76
2022/10/22 00:36:09;;;;;;;9.93;6.82;;;18.00;99.90;;;;;;4898038;29;20028;-75
2022/10/22 00:38:35;;;;;;;10.60;7.82;;;17.90;99.90;;;;;;4897835;29;20471;-76
2022/10/22 00:41:01;;;;;;;12.45;7.80;;;17.90;99.90;;;;;;4897971;29;20028;-76
2022/10/22 00:43:26;;;;;;;12.13;8.23;;;17.90;99.90;;;;;;4897707;29;20462;-75
2022/10/22 00:45:52;;;;;;;12.57;7.93;;;17.90;99.90;;;;;;4897714;29;20061;-76
2022/10/22 00:48:23;;;;;;;10.65;6.93;;;17.80;99.90;;;;;;4897849;29;20025;-75
2022/10/22 00:50:55;;;;;;;13.18;7.47;;;17.80;99.90;;;;;;4897821;29;20161;-75
2022/10/22 00:53:30;;;;;;;;;;;17.80;99.90;;;;;;4898356;29;20560;-76
2022/10/22 00:55:55;;;;;;;12.50;8.10;;;17.80;99.90;;;;;;4897719;29;19914;-75
2022/10/22 00:58:26;;;;;;;12.85;8.00;;;17.80;99.90;;;;;;4897693;29;20032;-76
2022/10/22 01:00:51;;;;;;;11.15;8.00;;;17.80;99.90;;;;;;4897652;29;20487;-75
2022/10/22 01:03:17;;;;;;;9.15;7.05;;;17.80;99.90;;;;;;4897660;29;20131;-76
2022/10/22 01:05:51;;;;;;;11.80;7.35;;;17.80;99.90;;;;;;4897580;29;20036;-76
2022/10/22 01:08:41;;;;;;;9.68;7.50;;;17.80;99.90;;;;;;4897469;29;20061;-75
2022/10/22 01:11:26;;;;;;;9.35;7.25;;;17.80;99.90;;;;;;4897637;29;20029;-75
2022/10/22 01:14:02;;;;;;;15.52;7.43;;;17.80;99.90;;;;;;4897663;29;20037;-75
2022/10/22 01:16:39;;;;;;;10.43;7.80;;;17.80;99.90;;;;;;4897655;29;20028;-75
2022/10/22 01:19:26;;;;;;;12.73;6.95;;;17.80;99.90;;;;;;4897708;29;20423;-75
2022/10/22 01:22:04;;;;;;;8.63;7.07;;;17.70;99.90;;;;;;4897542;29;20164;-75
2022/10/22 01:24:56;;;;;;;9.25;7.20;;;17.70;99.90;;;;;;4897471;29;20115;-75
2022/10/22 01:27:31;;;;;;;15.00;7.82;;;17.70;99.90;;;;;;4897371;29;20518;-75
2022/10/22 01:30:01;;;;;;;11.18;7.65;;;17.70;99.90;;;;;;4897388;29;20033;-75
2022/10/22 01:32:31;;;;;;;13.75;7.85;;;17.60;99.90;;;;;;4897234;29;20075;-75
2022/10/22 01:35:07;;;;;;;12.95;8.00;;;17.60;99.90;;;;;;4897445;29;20402;-75
2022/10/22 01:37:37;;;;;;;16.50;8.38;;;17.50;99.90;;;;;;4880561;29;20100;-75
2022/10/22 01:40:06;;;;;;;11.35;8.45;;;17.50;99.90;;;;;;4897133;29;20487;-76
2022/10/22 01:42:31;;;;;;;10.18;8.05;;;17.40;99.90;;;;;;4897413;29;20104;-75
2022/10/22 01:44:57;;;;;;;15.10;9.10;;;17.40;99.90;;;;;;4898676;29;20552;-75
2022/10/22 01:47:26;;;;;;;13.35;8.65;;;17.40;99.90;;;;;;4901036;29;20029;-75
2022/10/22 01:50:00;;;;;;;10.50;7.88;;;17.40;99.90;;;;;;4900938;29;20714;-75
2022/10/22 01:52:55;;;;;;;18.20;7.90;;;17.40;99.90;;;;;;4900886;29;20028;-75
2022/10/22 01:55:38;;;;;;;15.98;9.23;;;17.30;99.90;;;;;;4890512;29;20097;-76
2022/10/22 01:58:39;;;;;;;13.65;8.85;;;17.30;99.90;;;;;;4900772;29;20051;-76
2022/10/22 02:01:28;;;;;;;13.98;8.57;;;17.30;99.90;;;;;;4879894;29;20411;-75
2022/10/22 02:03:59;;;;;;;14.68;9.00;;;17.30;99.90;;;;;;4847582;29;20037;-75
2022/10/22 02:06:26;;;;;;;15.70;8.85;;;17.30;99.90;;;;;;4883797;29;20387;-75
2022/10/22 02:08:53;;;;;;;16.20;8.30;;;17.20;99.90;;;;;;4883498;29;20411;-75
2022/10/22 02:11:19;;;;;;;12.93;8.80;;;17.30;99.90;;;;;;4900549;29;20029;-75
2022/10/22 02:13:53;;;;;;;10.52;8.85;;;17.30;99.90;;;;;;4900352;29;20111;-75
2022/10/22 02:16:27;;;;;;;12.57;8.48;;;17.30;99.90;;;;;;4900516;29;20560;-75
2022/10/22 02:18:57;;;;;;;13.10;8.18;;;17.30;99.90;;;;;;4900418;29;20024;-75
2022/10/22 02:21:23;;;;;;;13.98;8.45;;;17.30;99.90;;;;;;4900330;29;20037;-75
2022/10/22 02:23:49;;;;;;;10.68;8.10;;;17.20;99.90;;;;;;4914748;29;20028;-75
2022/10/22 02:26:49;;;;;;;14.30;8.55;;;17.20;99.90;;;;;;4900259;29;20029;-75
2022/10/22 02:29:27;;;;;;;12.18;8.43;;;17.20;99.90;;;;;;4886996;29;20048;-75
2022/10/22 02:31:57;;;;;;;12.43;8.48;;;17.20;99.90;;;;;;4900201;29;20048;-75
2022/10/22 02:34:29;;;;;;;17.88;9.73;;;17.20;99.90;;;;;;4900216;29;20119;-74
2022/10/22 02:36:55;;;;;;;;;;;17.30;99.90;;;;;;4900584;29;20107;-74
2022/10/22 02:39:21;;;;;;;14.48;8.30;;;17.30;99.90;;;;;;4900090;29;19915;-75
2022/10/22 02:41:47;;;;;;;14.52;8.57;;;17.20;99.90;;;;;;4899887;29;20029;-75
2022/10/22 02:44:13;;;;;;;12.32;8.60;;;17.20;99.90;;;;;;4883139;29;20025;-74
2022/10/22 02:46:41;;;;;;;14.05;9.25;;;17.20;99.90;;;;;;4899951;29;20029;-75
2022/10/22 02:49:07;;;;;;;16.55;8.93;;;17.30;99.90;;;;;;4899779;29;20032;-74
2022/10/22 02:51:33;;;;;;;13.32;8.10;;;17.20;99.90;;;;;;4897203;29;20025;-75
2022/10/22 02:53:58;;;;;;;10.63;8.00;;;17.20;99.90;;;;;;4899681;29;20099;-75
2022/10/22 02:56:25;;;;;;;13.05;8.32;;;17.30;99.90;;;;;;4899245;29;20597;-75
2022/10/22 02:58:50;;;;;;;10.38;7.63;;;17.30;99.90;;;;;;4910287;29;20425;-75
2022/10/22 03:01:16;;;;;;;13.30;8.60;;;17.20;99.90;;;;;;4899100;29;20039;-75
2022/10/22 03:03:42;;;;;;;11.73;7.43;;;17.20;99.90;;;;;;4899198;29;20029;-75
2022/10/22 03:06:14;;;;;;;11.32;8.07;;;17.20;99.90;;;;;;4901802;29;20033;-75
2022/10/22 03:08:40;;;;;;;10.20;8.23;;;17.20;99.90;;;;;;4901502;29;20044;-75
2022/10/22 03:11:06;;;;;;;9.60;8.20;;;17.20;99.90;;;;;;4914480;29;20063;-75
2022/10/22 03:13:31;;;;;;;12.98;7.88;;;17.20;99.90;;;;;;4900998;29;20052;-75
2022/10/22 03:15:57;;;;;;;16.17;8.40;;;17.20;99.90;;;;;;4901361;29;20731;-75
2022/10/22 03:18:23;;;;;;;10.73;8.30;;;17.20;99.90;;;;;;4901170;29;20032;-75
2022/10/22 03:20:49;;;;;;;14.20;7.60;;;17.20;99.90;;;;;;4917826;29;20395;-75
2022/10/22 03:23:18;;;;;;;14.48;7.70;;;17.20;99.90;;;;;;4900355;29;20032;-75
2022/10/22 03:25:47;;;;;;;13.20;7.68;;;17.20;99.90;;;;;;4916725;29;20505;-75
2022/10/22 03:28:15;;;;;;;14.50;8.50;;;17.30;99.90;;;;;;4913298;29;20095;-75
2022/10/22 03:30:41;;;;;;;11.52;8.20;;;17.20;99.90;;;;;;4897658;29;20028;-75
2022/10/22 03:33:06;;;;;;;14.13;7.90;;;17.30;99.90;;;;;;4896911;29;20404;-75
2022/10/22 03:35:42;;;;;;;10.48;6.97;;;17.30;99.90;;;;;;4897814;29;20084;-75
2022/10/22 03:38:07;;;;;;;13.82;7.68;;;17.30;99.90;;;;;;4898134;29;20020;-75
2022/10/22 03:40:33;;;;;;;12.15;7.63;;;17.30;99.90;;;;;;4898291;29;20035;-75
2022/10/22 03:42:59;;;;;;;12.35;7.40;;;17.30;99.90;;;;;;4898632;29;20035;-75
2022/10/22 03:45:24;;;;;;;14.68;8.43;;;17.30;99.90;;;;;;4898955;29;20056;-75
2022/10/22 03:47:50;;;;;;;11.15;6.90;;;17.40;99.90;;;;;;4881732;29;20045;-75
2022/10/22 03:50:16;;;;;;;10.65;6.75;;;17.30;99.90;;;;;;4898740;29;20028;-75
2022/10/22 03:52:41;;;;;;;11.45;7.45;;;17.30;99.90;;;;;;4881984;29;20078;-76
2022/10/22 03:55:09;;;;;;;12.13;7.35;;;17.40;99.90;;;;;;4881896;29;20395;-75
2022/10/22 03:57:34;;;;;;;11.55;6.72;;;17.30;99.90;;;;;;4898593;29;20164;-75
2022/10/22 04:00:00;;;;;;;12.15;7.60;;;17.30;99.90;;;;;;4898571;29;20123;-76
2022/10/22 04:02:26;;;;;;;12.52;6.72;;;17.40;99.90;;;;;;4898639;29;20036;-75
2022/10/22 04:04:52;;;;;;;15.20;7.70;;;17.40;99.90;;;;;;4898224;29;20028;-75
2022/10/22 04:07:17;;;;;;;10.48;6.65;;;17.40;99.90;;;;;;4897542;29;20056;-75
2022/10/22 04:09:43;;;;;;;13.75;7.68;;;17.40;99.90;;;;;;4898295;29;20031;-75
2022/10/22 04:12:09;;;;;;;12.13;7.30;;;17.40;99.90;;;;;;4881171;29;20028;-75
2022/10/22 04:14:34;;;;;;;11.32;7.63;;;17.40;99.90;;;;;;4898341;29;20080;-75
2022/10/22 04:17:00;;;;;;;14.10;7.03;;;17.40;99.90;;;;;;4898266;29;20387;-75
2022/10/22 04:19:26;;;;;;;13.10;6.95;;;17.40;99.90;;;;;;4898015;29;20024;-75
2022/10/22 04:21:51;;;;;;;12.35;7.55;;;17.40;99.90;;;;;;4897766;29;20411;-75
2022/10/22 04:24:17;;;;;;;15.07;7.50;;;17.40;99.90;;;;;;4897910;29;20033;-75
2022/10/22 04:26:43;;;;;;;12.93;7.07;;;17.40;99.90;;;;;;4898184;29;20061;-75
2022/10/22 04:29:10;;;;;;;8.02;7.25;;;17.40;99.90;;;;;;4881340;29;20136;-75
2022/10/22 04:31:35;;;;;;;11.48;7.47;;;17.40;99.90;;;;;;4898056;29;20028;-76
2022/10/22 04:34:01;;;;;;;11.43;7.55;;;17.40;99.90;;;;;;4898130;29;20036;-75
2022/10/22 04:36:28;;;;;;;11.65;7.05;;;17.40;99.90;;;;;;4898213;29;20044;-75
2022/10/22 04:38:59;;;;;;;9.00;7.10;;;17.40;99.90;;;;;;4898029;29;20448;-75
2022/10/22 04:41:31;;;;;;;9.75;6.95;;;17.40;99.90;;;;;;4897935;29;20123;-76
2022/10/22 04:43:58;;;;;;;11.95;7.10;;;17.30;99.90;;;;;;4897887;29;20037;-75
2022/10/22 04:46:25;;;;;;;12.73;7.18;;;17.40;99.90;;;;;;4881164;29;20076;-75
2022/10/22 04:48:52;;;;;;;11.27;7.82;;;17.30;99.90;;;;;;4897756;29;20040;-75
2022/10/22 04:51:19;;;;;;;10.98;8.00;;;17.30;99.90;;;;;;4897660;29;20056;-75
2022/10/22 04:53:45;;;;;;;11.35;7.20;;;17.30;99.90;;;;;;4897794;29;20495;-75
2022/10/22 04:56:20;;;;;;;11.23;7.40;;;17.30;99.90;;;;;;4897825;29;20040;-75
2022/10/22 04:58:50;;;;;;;13.48;7.47;;;17.30;99.90;;;;;;4881092;29;20043;-75
2022/10/22 05:01:28;;;;;;;11.90;7.50;;;17.20;99.90;;;;;;4897836;29;20610;-75
2022/10/22 05:03:55;;;;;;;13.75;7.32;;;17.20;99.90;;;;;;4897764;29;20490;-75
2022/10/22 05:06:22;;;;;;;12.35;7.40;;;17.20;99.90;;;;;;4897769;29;20503;-75
2022/10/22 05:08:53;;;;;;;10.45;7.40;;;17.20;99.90;;;;;;4897604;29;20611;-75
2022/10/22 05:11:21;;;;;;;10.57;7.43;;;17.30;99.90;;;;;;4880906;29;20040;-75
2022/10/22 05:13:47;;;;;;;18.17;7.03;;;17.20;99.90;;;;;;4897767;29;20463;-75
2022/10/22 05:16:14;;;;;;;10.63;7.47;;;17.30;99.90;;;;;;4897705;29;20053;-75
2022/10/22 05:18:41;;;;;;;13.73;7.60;;;17.30;99.90;;;;;;4898642;29;20068;-75
2022/10/22 05:21:09;;;;;;;9.88;6.82;;;17.30;99.90;;;;;;4901337;29;20024;-75
2022/10/22 05:23:35;;;;;;;8.70;6.68;;;17.30;99.90;;;;;;4884605;29;20166;-74
2022/10/22 05:26:02;;;;;;;11.45;7.20;;;17.30;99.90;;;;;;4900937;29;20662;-74
2022/10/22 05:28:29;;;;;;;13.88;7.15;;;17.30;99.90;;;;;;4900902;29;20503;-74
2022/10/22 05:30:56;;;;;;;11.88;7.72;;;17.30;99.90;;;;;;4884095;29;20039;-74
2022/10/22 05:33:22;;;;;;;11.52;8.48;;;17.30;99.90;;;;;;4900732;29;20025;-74
2022/10/22 05:35:49;;;;;;;11.65;7.30;;;17.30;99.90;;;;;;4900681;29;20055;-74
2022/10/22 05:38:15;;;;;;;9.40;7.47;;;17.30;99.90;;;;;;4900380;29;20475;-74
2022/10/22 05:40:41;;;;;;;15.70;7.88;;;17.30;99.90;;;;;;4900394;29;20035;-74
2022/10/22 05:43:07;;;;;;;12.95;7.75;;;17.30;99.90;;;;;;4900543;29;20028;-74
2022/10/22 05:45:40;;;;;;;13.02;7.70;;;17.30;99.90;;;;;;4883720;29;20475;-74
2022/10/22 05:48:07;;;;;;;12.95;7.70;;;17.30;99.90;;;;;;4900536;29;20017;-74
2022/10/22 05:50:37;;;;;;;15.13;7.88;;;17.30;99.90;;;;;;4900391;29;20435;-74
2022/10/22 05:53:04;;;;;;;16.10;7.45;;;17.40;99.90;;;;;;4901160;29;20029;-74
2022/10/22 05:55:35;;;;;;;9.15;7.57;;;17.40;99.90;;;;;;4883935;29;20502;-74
2022/10/22 05:58:02;;;;;;;11.18;6.55;;;17.40;99.90;;;;;;4883890;29;20124;-74
2022/10/22 06:00:28;;;;;;;14.80;6.82;;;17.40;99.90;;;;;;4900726;29;20034;-74
2022/10/22 06:02:54;;;;;;;14.32;7.22;;;17.40;99.90;;;;;;4900394;29;20390;-74
2022/10/22 06:05:19;;;;;;;13.43;7.70;;;17.30;99.90;;;;;;4900139;29;20032;-74
2022/10/22 06:07:45;;;;;;;15.63;7.50;;;17.40;99.90;;;;;;4899963;29;20061;-74
2022/10/22 06:10:17;;;;;;;14.20;7.78;;;17.30;99.90;;;;;;4900070;29;20506;-74
2022/10/22 06:12:42;;;;;;;11.97;8.00;;;17.40;99.90;;;;;;4900258;29;20027;-74
2022/10/22 06:15:12;;;;;;;17.02;7.97;;;17.40;99.90;;;;;;4899786;29;20032;-74
2022/10/22 06:17:38;;;;;;;14.70;7.68;;;17.40;99.90;;;;;;4899906;29;20052;-74
2022/10/22 06:20:05;;;;;;;12.25;7.68;;;17.40;99.90;;;;;;4900197;29;20055;-74
2022/10/22 06:22:30;;;;;;;10.15;7.00;;;17.40;99.90;;;;;;4900369;29;20033;-74
2022/10/22 06:24:56;;;;;;;11.85;6.78;;;17.40;99.90;;;;;;4900271;29;20084;-74
2022/10/22 06:27:22;;;;;;;13.95;7.72;;;17.40;99.90;;;;;;4900379;29;20356;-74
2022/10/22 06:29:48;;;;;;;14.90;8.35;;;17.40;99.90;;;;;;4900098;29;20024;-74
2022/10/22 06:32:13;;;;;;;11.27;7.50;;;17.40;99.90;;;;;;4899807;29;20025;-74
2022/10/22 06:34:39;;;;;;;12.75;7.93;;;17.50;99.90;;;;;;4899989;29;20036;-76
2022/10/22 06:37:05;;;;;;;15.23;8.15;;;17.50;99.90;;;;;;4883322;29;20064;-74
2022/10/22 06:39:30;;;;;;;13.90;7.63;;;17.50;99.90;;;;;;4899917;29;20613;-75
2022/10/22 06:41:56;;;;;;;10.75;7.53;;;17.50;99.90;;;;;;4900063;29;20075;-74
2022/10/22 06:44:22;;;;;;;13.90;8.73;;;17.50;99.90;;;;;;4899816;29;20032;-74
2022/10/22 06:46:51;;;;;;;18.05;8.02;;;17.50;99.90;;;;;;4882783;29;20024;-74
2022/10/22 06:49:19;;;;;;;9.70;7.45;;;17.60;99.90;;;;;;4883013;29;20025;-75
2022/10/22 06:51:48;;;;;;;12.57;7.50;;;17.60;99.90;;;;;;4899935;29;20068;-75
2022/10/22 06:54:13;;;;;;;13.60;7.50;;;17.60;99.90;;;;;;4894682;29;20052;-75
2022/10/22 06:56:39;;;;;;;15.68;8.48;;;17.60;99.90;;;;;;4881046;29;20070;-75
2022/10/22 06:59:05;;;;;;;13.02;7.45;;;17.60;99.90;;;;;;4880896;29;20021;-74
2022/10/22 07:01:33;;;;;;;10.55;6.50;;;17.70;99.90;;;;;;4863980;29;20029;-75
2022/10/22 07:03:59;;;;;;;11.95;7.40;;;17.70;99.90;;;;;;4880706;29;20128;-75
2022/10/22 07:06:27;;;;;;;17.35;7.72;;;17.70;99.90;;;;;;4863850;29;20028;-75
2022/10/22 07:08:54;;;;;;;13.48;7.22;;;17.80;99.90;;;;;;4863899;29;20048;-75
2022/10/22 07:11:42;;;;;;;10.25;7.18;;;17.80;99.90;;;;;;4880763;29;20036;-75
2022/10/22 07:14:07;;;;;;;17.27;8.45;;;17.90;99.90;;;;;;4880103;29;20145;-75
2022/10/22 07:16:33;;;;;;;12.48;7.95;;;17.80;99.90;;;;;;4863871;29;20025;-76
2022/10/22 07:19:01;;;;;;;11.80;7.60;;;17.90;99.90;;;;;;4880676;29;20037;-75
2022/10/22 07:21:27;;;;;;;9.00;7.57;;;17.90;99.90;;;;;;4880292;29;20464;-75
2022/10/22 07:23:53;;;;;;;14.27;6.93;;;18.00;99.90;;;;;;4880525;29;20094;-75
2022/10/22 07:26:19;;;;;;;11.48;7.28;;;18.00;99.90;;;;;;4880299;29;20032;-75
2022/10/22 07:28:46;;;;;;;10.43;6.85;;;18.00;99.90;;;;;;4863866;29;20376;-75
2022/10/22 07:31:13;;;;;;;13.20;7.80;;;18.00;99.90;;;;;;4863683;29;20435;-75
2022/10/22 07:33:39;;;;;;;11.70;8.20;;;18.00;99.90;;;;;;4880343;29;20072;-75
2022/10/22 07:36:09;;;;;;;13.82;6.75;;;18.00;99.90;;;;;;4863809;29;20136;-75
2022/10/22 07:38:35;;;;;;;13.77;8.52;;;18.00;99.90;;;;;;4880358;29;20021;-75
2022/10/22 07:41:02;;;;;;;10.48;8.05;;;18.10;99.90;;;;;;4880244;29;20151;-75
2022/10/22 07:43:28;;;;;;;14.45;7.65;;;18.00;99.90;;;;;;4885101;29;20035;-75
2022/10/22 07:45:54;;;;;;;11.48;7.20;;;18.00;99.90;;;;;;4898900;29;20025;-75
2022/10/22 07:48:20;;;;;;;9.25;6.32;;;18.10;99.90;;;;;;4882027;29;20043;-75
2022/10/22 07:50:49;;;;;;;12.52;6.90;;;18.10;99.90;;;;;;4881817;29;20495;-75
2022/10/22 07:53:15;;;;;;;14.45;6.90;;;18.20;99.90;;;;;;4898560;29;20507;-75
2022/10/22 07:55:41;;;;;;;13.43;7.47;;;18.20;99.90;;;;;;4898714;29;20025;-75
2022/10/22 07:58:07;;;;;;;9.77;6.97;;;18.20;99.90;;;;;;4898850;29;20032;-75
2022/10/22 08:00:33;;;;;;;12.88;7.15;;;18.30;99.90;;;;;;4898431;29;20032;-75
2022/10/22 08:02:58;;;;;;;12.88;7.68;;;18.30;99.90;;;;;;4898810;29;20506;-75
2022/10/22 08:05:24;;;;;;;9.57;6.97;;;18.30;99.90;;;;;;4898633;29;20403;-75
2022/10/22 08:07:50;;;;;;;12.77;7.50;;;18.40;99.90;;;;;;4881221;29;20076;-75
2022/10/22 08:10:16;;;;;;;13.50;7.43;;;18.40;99.90;;;;;;4881390;29;20452;-75
2022/10/22 08:12:41;;;;;;;11.32;6.95;;;18.40;99.90;;;;;;4898359;29;20029;-75
2022/10/22 08:15:08;;;;;;;7.07;6.10;;;18.50;99.90;;;;;;4898479;29;20051;-75
2022/10/22 08:17:34;;;;;;;10.63;7.03;;;18.50;99.90;;;;;;4881286;29;20031;-75
2022/10/22 08:19:59;;;;;;;9.77;6.32;;;18.50;99.90;;;;;;4881047;29;20453;-75
2022/10/22 08:22:25;;;;;;;11.82;8.27;;;18.60;99.90;;;;;;4897980;29;20479;-75
2022/10/22 08:24:52;;;;;;;15.05;7.10;;;18.60;99.90;;;;;;4898064;29;20516;-75
2022/10/22 08:27:18;;;;;;;11.85;6.32;;;18.70;99.90;;;;;;4881224;29;20076;-75
2022/10/22 08:29:43;;;;;;;14.43;7.15;;;18.70;99.90;;;;;;4898050;29;20032;-75
2022/10/22 08:32:09;;;;;;;15.68;7.07;;;18.70;99.90;;;;;;4898354;29;20023;-75
2022/10/22 08:34:35;;;;;;;11.18;6.35;;;18.70;99.90;;;;;;4897929;29;20059;-75
2022/10/22 08:37:01;;;;;;;10.95;6.38;;;18.80;99.90;;;;;;4897727;29;20028;-75
2022/10/22 08:39:26;;;;;;;12.52;7.07;;;18.90;99.90;;;;;;4897663;29;20029;-75
2022/10/22 08:41:55;;;;;;;14.75;8.38;;;18.90;99.90;;;;;;4897818;29;20034;-75
2022/10/22 08:44:53;;;;;;;13.57;7.32;;;18.90;99.90;;;;;;4897682;29;20036;-75
2022/10/22 08:48:06;;;;;;;12.77;6.95;;;18.90;99.90;;;;;;4897976;29;20080;-75
2022/10/22 08:50:42;;;;;;;13.25;5.90;;;19.00;99.90;;;;;;4897526;29;20037;-75
2022/10/22 08:53:31;;;;;;;10.95;6.07;;;19.10;99.90;;;;;;4897374;29;20032;-75
2022/10/22 08:55:57;;;;;;;18.52;6.57;;;19.10;99.90;;;;;;4880875;29;20387;-75
2022/10/22 08:58:43;;;;;;;9.63;6.55;;;19.10;99.90;;;;;;4881053;29;20195;-75
2022/10/22 09:01:22;;;;;;;16.48;6.88;;;19.20;99.90;;;;;;4897836;29;20032;-76
2022/10/22 09:04:07;;;;;;;12.05;6.97;;;19.30;99.90;;;;;;4880839;29;20455;-77
2022/10/22 09:06:36;;;;;;;7.32;6.10;;;19.30;99.90;;;;;;4897788;29;20032;-77
2022/10/22 09:09:09;;;;;;;10.52;6.22;;;19.40;99.90;;;;;;4897542;29;20579;-77
2022/10/22 09:11:38;;;;;;;11.43;5.57;;;19.40;99.90;;;;;;4897650;29;20025;-77
2022/10/22 09:14:04;;;;;;;9.23;6.07;;;19.50;99.90;;;;;;4897530;29;20036;-77
2022/10/22 09:16:45;;;;;;;8.85;5.65;;;19.50;99.90;;;;;;4897590;29;20115;-77
2022/10/22 09:19:38;;;;;;;12.40;6.30;;;19.60;99.90;;;;;;4897412;29;20040;-77
2022/10/22 09:22:13;;;;;;;8.52;5.10;;;19.60;99.90;;;;;;4897506;29;20021;-76
2022/10/22 09:24:45;;;;;;;8.40;5.53;;;19.70;99.90;;;;;;4897421;29;20107;-76
2022/10/22 09:27:19;;;;;;;8.43;5.10;;;19.80;99.90;;;;;;4897609;29;20025;-77
2022/10/22 09:29:46;;;;;;;10.77;6.22;;;19.80;99.90;;;;;;4897470;29;20117;-77
2022/10/22 09:32:13;;;;;;;10.65;7.10;;;19.90;99.90;;;;;;4880792;29;20028;-77
2022/10/22 09:34:39;;;;;;;14.73;7.63;;;19.90;99.90;;;;;;4897235;29;20056;-77
2022/10/22 09:37:08;;;;;;;12.18;7.88;;;20.00;99.90;;;;;;4897240;29;20032;-76
2022/10/22 09:39:38;;;;;;;14.02;8.40;;;20.00;99.90;;;;;;4897341;29;20033;-76
2022/10/22 09:42:04;;;;;;;17.77;7.32;;;20.10;99.90;;;;;;4880650;29;20036;-76
2022/10/22 09:44:34;;;;;;;11.30;7.88;;;20.10;99.90;;;;;;4897482;29;20029;-77
2022/10/22 09:47:03;;;;;;;21.42;7.93;;;20.10;99.90;;;;;;4897529;29;20456;-77
2022/10/22 09:49:33;;;;;;;12.23;6.97;;;20.10;99.90;;;;;;4897246;29;20032;-77
2022/10/22 09:51:59;;;;;;;16.90;7.35;;;20.10;99.90;;;;;;4897474;29;20651;-76
2022/10/22 09:54:31;;;;;;;21.65;7.55;;;20.10;99.90;;;;;;4897310;29;20092;-76
2022/10/22 09:57:05;;;;;;;13.45;6.53;;;20.10;99.90;;;;;;4897278;29;20040;-77
2022/10/22 09:59:35;;;;;;;11.27;6.03;;;20.20;99.90;;;;;;4880418;29;20391;-76
2022/10/22 10:02:12;;;;;;;10.25;6.78;;;20.10;99.90;;;;;;4897173;29;20033;-76
2022/10/22 10:04:46;;;;;;;12.05;6.80;;;20.10;99.90;;;;;;4897126;29;20035;-76
2022/10/22 10:07:32;;;;;;;12.77;7.45;;;20.10;99.90;;;;;;4900135;29;20494;-76
2022/10/22 10:09:58;;;;;;;14.05;7.15;;;20.20;99.90;;;;;;4900711;29;20033;-76
2022/10/22 10:12:44;;;;;;;14.80;7.53;;;20.20;99.90;;;;;;4900581;29;20028;-76
2022/10/22 10:15:23;;;;;;;9.90;6.68;;;20.30;99.90;;;;;;4915109;29;20474;-76
2022/10/22 10:18:03;;;;;;;14.30;7.20;;;20.40;99.90;;;;;;4900407;29;20071;-75
2022/10/22 10:20:56;;;;;;;13.52;7.20;;;20.50;99.90;;;;;;4883494;29;20036;-75
2022/10/22 10:23:33;;;;;;;12.68;6.78;;;20.50;99.90;;;;;;4900352;29;20043;-75
2022/10/22 10:25:59;;;;;;;12.45;6.93;;;20.50;99.90;;;;;;4900143;29;20059;-75
2022/10/22 10:28:53;;;;;;;10.10;6.95;;;20.50;99.90;;;;;;4900119;29;20060;-75
2022/10/22 10:32:03;;;;;;;9.77;6.47;;;20.40;99.90;;;;;;4899529;29;20031;-75
2022/10/22 10:34:35;;;;;;;10.65;6.45;;;20.50;99.90;;;;;;4867745;29;20039;-75
2022/10/22 10:37:31;;;;;;;10.73;6.32;;;20.50;99.90;;;;;;4899185;29;20467;-75
2022/10/22 10:40:15;;;;;;;10.80;6.68;;;20.50;99.90;;;;;;4892936;29;20084;-74
2022/10/22 10:43:01;;;;;;;11.77;6.70;;;20.60;99.90;;;;;;4899151;29;20049;-75
2022/10/22 10:45:48;;;;;;;13.70;7.05;;;20.60;99.90;;;;;;4899812;29;20033;-75
2022/10/22 10:48:35;;;;;;;14.32;7.10;;;20.60;99.90;;;;;;4895799;29;20028;-75
2022/10/22 10:51:17;;;;;;;17.00;6.57;;;20.70;99.90;;;;;;4898973;29;20604;-75
2022/10/22 10:53:50;;;;;;;14.48;6.63;;;20.70;99.90;;;;;;4899954;29;20032;-75
2022/10/22 10:56:37;;;;;;;9.73;6.18;;;20.70;99.90;;;;;;4899836;29;20032;-75
2022/10/22 10:59:28;;;;;;;10.80;6.53;;;20.70;99.90;;;;;;4899703;29;20032;-75
2022/10/22 11:02:14;;;;;;;9.23;5.82;;;20.60;99.90;;;;;;4873926;29;20040;-76
2022/10/22 11:05:04;;;;;;;9.30;6.13;;;20.60;99.90;;;;;;4898955;29;20036;-75
2022/10/22 11:08:19;;;;;;;12.85;6.55;;;20.60;99.90;;;;;;4898794;29;20418;-75
2022/10/22 11:11:12;;;;;;;14.80;7.10;;;20.50;99.90;;;;;;4881008;29;20491;-75
2022/10/22 11:14:00;;;;;;;12.13;6.50;;;20.50;99.90;;;;;;4879912;29;20029;-75
2022/10/22 11:16:35;;;;;;;9.98;4.95;;;20.50;99.90;;;;;;4879841;29;20399;-75
2022/10/22 11:19:04;;;;;;;14.77;4.80;;;20.50;99.90;;;;;;4863571;29;20085;-75
2022/10/22 11:21:33;;;;;;;9.20;4.63;;;20.40;99.90;;;;;;4880470;29;20033;-75
2022/10/22 11:24:29;;;;;;;8.60;4.60;;;20.30;99.90;;;;;;4880400;29;20044;-75
2022/10/22 11:26:56;;;;;;;7.70;3.35;;;20.30;99.90;;;;;;4863687;29;20035;-75
2022/10/22 11:29:31;;;;;;;4.05;3.17;;;20.10;99.90;;;;;;4880152;29;20492;-75
2022/10/22 11:31:57;;;;;;;4.82;2.95;;;20.00;99.90;;;;;;4863742;29;20029;-75
2022/10/22 11:34:49;;;;;;;3.63;1.45;;;20.00;99.90;;;;;;4882698;29;20112;-75
2022/10/22 11:37:16;;;;;;;1.83;1.65;;;19.80;99.90;;;;;;4883328;29;20039;-75
2022/10/22 11:39:51;;;;;;;2.85;1.40;;;19.60;99.90;;;;;;4897648;29;20028;-75
2022/10/22 11:42:31;;;;;;;3.30;1.55;;;19.60;99.90;;;;;;4879554;29;20040;-75
2022/10/22 11:45:00;;;;;;;1.25;1.02;;;19.50;99.90;;;;;;4875066;29;20059;-75
2022/10/22 11:47:32;;;;;;;1.13;0.70;;;19.40;99.90;;;;;;4898268;29;20020;-75
2022/10/22 11:50:10;;;;;;;2.17;0.93;;;19.40;99.90;;;;;;4898179;29;20025;-75
2022/10/22 11:52:35;;;;;;;0.85;0.60;;;19.40;99.90;;;;;;4897936;29;20391;-75
2022/10/22 11:55:22;;;;;;;0.52;0.52;;;19.20;99.90;;;;;;4898004;29;20084;-75
2022/10/22 11:57:47;;;;;;;1.75;0.30;;;19.20;99.90;;;;;;4897416;29;20032;-75
2022/10/22 12:00:34;;;;;;;0.50;0.50;;;19.10;99.90;;;;;;4898394;29;20395;-75
2022/10/22 12:03:16;;;;;;;1.70;0.50;;;19.00;99.90;;;;;;4898295;29;20040;-75
2022/10/22 12:05:44;;;;;;;0.82;0.60;;;18.90;99.90;;;;;;4898544;29;20115;-75
2022/10/22 12:08:24;;;;;;;6.82;1.42;;;18.70;99.90;;;;;;4898135;29;20048;-75
2022/10/22 12:10:59;;;;;;;3.53;1.00;;;18.60;99.90;;;;;;4898458;29;20056;-75
2022/10/22 12:13:31;;;;;;;4.50;1.75;;;18.50;99.90;;;;;;4898221;29;20025;-76
2022/10/22 12:16:01;;;;;;;3.30;0.80;;;18.40;99.90;;;;;;4898219;29;20020;-75
2022/10/22 12:18:34;;;;;;;2.25;0.98;;;18.30;99.90;;;;;;4897154;29;20036;-76
2022/10/22 12:21:00;;;;;;;1.55;0.70;;;18.20;99.90;;;;;;4897202;29;20032;-76
2022/10/22 12:23:32;;;;;;;2.67;0.73;;;18.10;99.90;;;;;;4897010;29;20025;-76
2022/10/22 12:25:58;;;;;;;3.10;0.90;;;18.10;99.90;;;;;;4898173;29;20489;-76
2022/10/22 12:28:24;;;;;;;1.38;1.05;;;18.00;99.90;;;;;;4880751;29;20029;-77
2022/10/22 12:30:49;;;;;;;1.13;0.90;;;18.10;99.90;;;;;;4897900;29;20024;-77
2022/10/22 12:33:20;;;;;;;2.35;1.00;;;18.00;99.90;;;;;;4898184;29;20032;-77
2022/10/22 12:35:47;;;;;;;3.45;1.10;;;18.00;99.90;;;;;;4896733;29;20013;-77
2022/10/22 12:38:20;;;;;;;1.90;0.80;;;18.00;99.90;;;;;;4896854;29;20040;-77
2022/10/22 12:40:47;;;;;;;2.03;0.63;;;17.90;99.90;;;;;;4897229;29;20107;-77
2022/10/22 12:43:18;;;;;;;0.88;0.70;;;17.90;99.90;;;;;;4897030;29;20035;-77
2022/10/22 12:45:47;;;;;;;3.22;0.90;;;17.90;99.90;;;;;;4898011;29;20025;-78
2022/10/22 12:48:21;;;;;;;0.60;0.60;;;17.90;99.90;;;;;;4897762;29;20028;-78
2022/10/22 12:50:53;;;;;;;1.25;1.05;;;17.90;99.90;;;;;;4897463;29;20024;-78
2022/10/22 12:53:43;;;;;;;1.60;0.85;;;17.90;99.90;;;;;;4897682;29;20039;-78
2022/10/22 12:56:20;;;;;;;1.65;0.85;;;17.90;99.90;;;;;;4897718;29;20029;-78
2022/10/22 12:58:59;;;;;;;4.05;1.02;;;17.90;99.90;;;;;;4897890;29;20079;-78
2022/10/22 13:01:28;;;;;;;3.08;1.40;;;17.90;99.90;;;;;;4881043;29;20025;-77